Vilanova de Sau





Hora UTC 20:30
Temperatura 18.4 ºC
Humitat 85.6 %
Pressió 1019.2 hPa
Pluja 0.2 mm
Velocitat vent 0.0 km/h
Direcció vent NNE
Radiació solar 0.0 W/m²

Dades diàries 2022-08-19



Hora UTC (hivern +1h; estiu +2h)
Temperatura (ºC) Humitat (%) Pressió (hPa) Velocitat vent (km/h) Precipitació (mm) Radiació solar (W/m²)
Hora UTC Aire Humitat Pressió Vel. Dir. Vel. Max Dir. Intent. màx 5 min. Rad. Sol.
00:05 12.8 98.5 1016.8 0.0 NNE 0.0 S 0.0 0.0
00:10 12.8 98.6 1016.8 1.1 W 6.1 WNW 0.1 0.0
00:15 12.8 98.6 1016.7 0.0 NNE 0.0 W 0.0 0.0
00:20 12.8 98.7 1016.7 0.9 WSW 3.4 WSW 0.0 0.0
00:25 12.9 98.7 1016.5 0.0 WSW 3.4 WSW 0.0 0.0
00:30 12.7 98.6 1016.6 0.0 NNE 0.0 SW 0.0 0.0
00:35 12.7 98.6 1016.6 0.0 NNE 0.0 SW 0.0 0.0
00:40 12.5 98.5 1016.6 0.0 NNE 0.0 SW 0.0 0.0
00:45 12.4 98.6 1016.7 0.7 NNE 6.1 NNE 0.0 0.0
00:50 12.4 98.7 1016.8 0.0 NNE 0.0 N 0.0 0.0
00:55 12.6 98.9 1016.8 0.0 NNE 0.0 W 0.0 0.0
01:00 12.8 98.9 1016.7 0.0 NNE 0.0 W 0.0 0.0
01:05 12.9 98.9 1016.7 0.0 NNE 0.0 W 0.0 0.0
01:10 13.0 98.9 1016.6 0.0 NNE 0.0 W 0.0 0.0
01:15 13.1 98.9 1016.6 0.0 NNE 0.0 W 0.0 0.0
01:20 13.2 98.9 1016.6 0.0 NNE 0.0 W 0.0 0.0
01:25 13.2 98.8 1016.6 0.3 S 3.4 S 0.0 0.0
01:30 13.1 98.8 1016.5 1.1 SW 3.4 SW 0.0 0.0
01:35 13.1 98.8 1016.6 0.4 WSW 3.4 WSW 0.0 0.0
01:40 13.0 98.8 1016.6 0.0 NNE 0.0 WNW 0.0 0.0
01:45 12.9 98.8 1016.6 0.0 NNE 0.0 NNE 0.0 0.0
01:50 12.7 98.8 1016.7 0.0 NNE 0.0 NNE 0.0 0.0
01:55 12.6 98.8 1016.7 0.0 NNE 0.0 SSW 0.0 0.0
02:00 12.5 98.8 1016.9 1.1 NNE 6.1 N 0.0 0.0
02:05 12.5 99.0 1016.9 0.0 NNE 0.0 N 0.0 0.0
02:10 12.6 99.0 1016.9 0.0 NNE 0.0 N 0.0 0.0
02:15 12.6 99.0 1016.9 0.0 NNE 0.0 SW 0.0 0.0
02:20 12.7 99.0 1016.9 0.0 NNE 0.0 SSW 0.0 0.0
02:25 12.7 99.0 1016.9 0.0 NNE 0.0 SSW 0.0 0.0
02:30 12.7 99.0 1016.9 0.0 NNE 0.0 E 0.0 0.0
02:35 12.8 99.1 1016.8 0.2 WSW 3.4 WSW 0.0 0.0
02:40 13.0 99.2 1016.8 0.0 NNE 0.0 WSW 0.0 0.0
02:45 13.1 99.2 1016.8 0.0 NNE 0.0 WSW 0.0 0.0
02:50 13.3 99.2 1016.8 0.0 NNE 0.0 WSW 0.0 0.0
02:55 13.3 99.1 1016.7 0.0 NNE 0.0 SSW 0.0 0.0
03:00 13.3 99.1 1016.8 0.0 NNE 0.0 SSW 0.0 0.0
03:05 13.3 99.1 1016.8 0.0 NNE 0.0 SSW 0.0 0.0
03:10 13.3 99.0 1016.8 0.0 NNE 0.0 SW 0.0 0.0
03:15 13.2 99.0 1016.9 0.0 NNE 0.0 SW 0.0 0.0
03:20 13.0 98.9 1016.9 0.0 NNE 0.0 ENE 0.1 0.0
03:25 12.7 98.9 1016.9 0.0 NNE 0.0 ENE 0.0 0.0
03:30 12.6 99.0 1016.9 0.0 NNE 0.0 ENE 0.0 0.0
03:35 12.6 99.1 1017.0 0.0 NNE 0.0 ENE 0.0 0.0
03:40 12.6 99.1 1017.1 0.0 NNE 0.0 ENE 0.0 0.0
03:45 12.7 99.3 1017.2 0.0 NNE 0.0 SW 0.0 0.0
03:50 12.9 99.4 1017.2 0.0 NNE 0.0 SW 0.0 0.0
03:55 13.0 99.4 1017.3 0.0 NNE 0.0 SW 0.0 0.0
04:00 13.1 99.4 1017.3 0.0 NNE 0.0 SW 0.0 0.0
04:05 13.2 99.4 1017.2 0.0 NNE 0.0 SW 0.0 0.0
04:10 13.3 99.4 1017.2 0.0 NNE 0.0 SW 0.0 0.0
04:15 13.2 99.3 1017.2 0.0 NNE 0.0 SE 0.0 0.0
04:20 13.2 99.3 1017.2 0.0 NNE 0.0 SSE 0.0 0.0
04:25 13.1 99.2 1017.3 0.3 NE 6.1 NE 0.0 0.0
04:30 12.9 99.1 1017.3 0.3 ENE 6.1 ENE 0.0 0.0
04:35 12.7 99.2 1017.5 0.2 NE 3.4 NE 0.0 0.0
04:40 12.7 99.3 1017.5 0.6 NE 6.1 NE 0.0 0.0
04:45 12.7 99.5 1017.5 0.0 NNE 0.0 NE 0.0 0.0
04:50 12.8 99.4 1017.5 0.0 NNE 0.0 NE 0.0 0.2
04:55 12.7 99.4 1017.5 0.0 NNE 0.0 NE 0.0 0.6
05:00 12.7 99.4 1017.6 0.0 NNE 0.0 NE 0.0 1.4
05:05 12.8 99.5 1017.6 0.0 NNE 0.0 NE 0.0 2.5
05:10 12.9 99.5 1017.6 0.0 NNE 0.0 SW 0.0 4.2
05:15 12.9 99.4 1017.6 0.0 NNE 0.0 SSW 0.0 8.1
05:20 12.8 99.3 1017.6 0.0 NNE 0.0 SSW 0.0 15.5
05:25 12.7 99.4 1017.6 0.0 NNE 0.0 SSW 0.0 23.0
05:30 12.7 99.3 1017.7 0.0 NNE 0.0 SSW 0.0 23.6
05:35 12.5 99.2 1017.7 0.1 NE 3.4 NE 0.0 45.6
05:40 12.4 99.2 1017.8 0.0 E 3.4 E 0.0 80.0
05:45 12.4 99.3 1017.9 0.0 NNE 0.0 ENE 0.0 91.3
05:50 12.5 99.2 1017.9 0.0 NNE 0.0 ENE 0.0 67.7
05:55 12.6 99.1 1017.9 0.0 NNE 0.0 ENE 0.0 55.9
06:00 12.9 99.3 1017.9 0.0 NNE 0.0 SW 0.0 39.3
06:05 13.0 99.4 1018.0 0.0 NNE 0.0 SW 0.0 55.7
06:10 13.1 99.4 1018.0 0.0 NNE 0.0 SW 0.0 56.1
06:15 13.3 99.4 1018.0 0.0 NNE 0.0 SSW 0.0 56.4
06:20 13.3 99.3 1018.0 0.0 NNE 0.0 E 0.0 69.8
06:25 13.3 99.2 1018.1 0.0 NNE 0.0 SE 0.0 71.7
06:30 13.3 99.0 1018.1 0.0 NNE 0.0 SE 0.0 103.9
06:35 13.4 99.2 1018.2 0.0 NNE 0.0 ESE 0.0 97.6
06:40 13.4 98.9 1018.3 0.0 NNE 0.0 SSE 0.0 96.5
06:45 13.2 98.7 1018.3 0.0 NNE 0.0 SE 0.0 122.0
06:50 13.4 98.9 1018.2 0.0 NNE 0.0 SE 0.0 130.6
06:55 13.5 98.8 1018.2 0.0 NNE 0.0 SE 0.0 156.5
07:00 13.4 98.7 1018.3 0.0 ENE 3.4 ENE 0.0 124.9
07:05 13.4 98.8 1018.3 0.0 NNE 0.0 ENE 0.0 117.2
07:10 13.6 99.0 1018.3 0.0 NNE 0.0 ENE 0.0 138.4
07:15 13.7 98.9 1018.5 0.1 NE 3.4 ENE 0.0 130.3
07:20 13.7 98.8 1018.6 0.0 NNE 0.0 N 0.0 150.6
07:25 13.7 98.9 1018.6 0.0 NNE 0.0 NNE 0.0 237.2
07:30 14.0 98.8 1018.6 0.0 NNE 0.0 NE 0.0 229.9
07:35 14.4 98.4 1018.7 0.0 NNE 0.0 S 0.0 308.8
07:40 14.6 98.0 1018.6 0.0 NNE 0.0 NE 0.0 306.1
07:45 15.0 97.8 1018.6 0.1 NE 3.4 ENE 0.0 420.3
07:50 15.3 97.2 1018.5 0.6 NNE 6.1 NNE 0.0 234.4
07:55 15.3 97.1 1018.5 0.3 NNW 6.1 NNW 0.0 266.7
08:00 15.4 97.2 1018.5 0.0 NNE 0.0 NNE 0.0 236.8
08:05 15.5 97.4 1018.5 0.0 NNE 0.0 NNE 0.0 398.4
08:10 15.5 97.1 1018.5 0.0 NNE 0.0 WSW 0.0 541.6
08:15 16.0 96.6 1018.5 0.0 NNE 0.0 W 0.0 458.9
08:20 16.5 96.1 1018.5 0.0 NNE 0.0 S 0.0 522.7
08:25 16.9 95.6 1018.5 0.0 NNE 0.0 NNE 0.0 556.8
08:30 17.3 95.0 1018.4 1.7 ENE 6.1 ENE 0.0 567.3
08:35 17.4 94.6 1018.5 1.0 E 6.1 ENE 0.0 580.8
08:40 17.7 93.4 1018.5 0.0 NNE 0.0 SSE 0.0 591.8
08:45 18.2 89.5 1018.5 3.2 ENE 8.8 ENE 0.0 603.9
08:50 18.4 85.9 1018.6 5.2 ENE 11.5 ENE 0.0 616.1
08:55 18.6 84.7 1018.5 5.1 NE 8.8 NE 0.0 627.6
09:00 18.7 83.1 1018.5 6.2 ENE 11.5 E 0.0 639.8
09:05 18.9 83.2 1018.5 2.8 E 8.8 E 0.0 650.4
09:10 19.3 80.4 1018.5 2.5 E 6.1 E 0.0 661.1
09:15 19.7 79.1 1018.5 2.5 ENE 8.8 E 0.0 670.5
09:20 20.1 76.4 1018.5 3.7 E 8.8 E 0.0 681.4
09:25 20.2 75.5 1018.5 3.6 E 8.8 E 0.0 691.4
09:30 20.3 75.6 1018.4 5.1 ENE 8.8 NE 0.0 701.3
09:35 20.5 74.0 1018.5 4.8 NNE 11.5 NNE 0.0 709.2
09:40 20.7 71.4 1018.4 2.8 NNW 6.1 N 0.0 718.9
09:45 20.8 70.5 1018.4 5.0 ENE 8.8 NNE 0.0 728.0
09:50 21.0 68.8 1018.4 4.0 ENE 8.8 ENE 0.0 736.6
09:55 21.4 67.9 1018.4 2.5 NNE 6.1 ENE 0.0 745.0
10:00 21.8 66.7 1018.4 1.2 E 6.1 SW 0.0 752.7
10:05 22.3 63.5 1018.4 5.9 ENE 11.5 E 0.0 759.9
10:10 22.3 63.0 1018.4 5.4 ENE 11.5 ENE 0.0 766.1
10:15 22.3 63.5 1018.4 6.2 ENE 11.5 E 0.0 771.5
10:20 22.6 61.7 1018.4 6.6 NE 11.5 NE 0.0 777.5
10:25 23.0 59.7 1018.3 4.1 NE 8.8 NNE 0.0 783.5
10:30 23.3 57.9 1018.3 5.5 ENE 11.5 ENE 0.0 789.1
10:35 23.2 57.5 1018.2 6.7 ENE 14.2 ENE 0.0 795.3
10:40 23.4 56.1 1018.2 7.9 ENE 14.2 ENE 0.0 801.0
10:45 23.6 54.9 1018.2 6.7 NE 11.5 ENE 0.0 805.0
10:50 24.3 49.6 1018.2 5.6 NNE 11.5 NNE 0.0 809.0
10:55 24.8 46.4 1018.2 7.5 NNE 14.2 NNE 0.0 813.0
11:00 25.0 45.4 1018.2 7.6 NNE 14.2 N 0.0 816.0
11:05 25.0 45.4 1018.2 7.0 NE 14.2 NNE 0.0 819.0
11:10 25.2 43.9 1018.1 5.4 NE 14.2 NNE 0.0 822.0
11:15 25.4 43.2 1018.1 4.3 NNE 11.5 N 0.0 824.0
11:20 25.9 42.0 1018.1 3.8 N 11.5 N 0.0 825.0
11:25 26.0 40.7 1018.1 4.2 W 11.5 NW 0.0 827.0
11:30 25.8 40.9 1018.1 2.9 SSW 11.5 SW 0.0 827.0
11:35 26.4 41.2 1018.1 4.7 SSW 11.5 SSW 0.0 826.0
11:40 26.7 39.2 1018.0 4.0 WSW 11.5 W 0.0 827.0
11:45 26.9 36.4 1018.0 4.2 NE 11.5 NNE 0.0 828.0
11:50 26.5 35.7 1018.0 5.2 NE 8.8 NE 0.0 829.0
11:55 26.1 38.0 1017.9 4.1 E 11.5 E 0.0 827.0
12:00 26.6 38.4 1017.8 6.8 NE 11.5 NNE 0.0 827.0
12:05 27.2 37.0 1017.7 4.5 NE 16.9 NE 0.0 825.0
12:10 26.5 39.0 1017.7 9.3 ENE 16.9 E 0.0 822.0
12:15 26.5 36.9 1017.7 8.1 NE 14.2 NNE 0.0 820.0
12:20 26.8 35.3 1017.6 5.3 NNE 11.5 NNE 0.0 818.0
12:25 27.0 35.1 1017.6 4.5 ESE 11.5 ENE 0.0 815.0
12:30 27.3 35.9 1017.6 1.9 ESE 11.5 ENE 0.0 811.0
12:35 27.1 34.4 1017.6 2.5 ESE 8.8 E 0.0 748.2
12:40 27.5 33.6 1017.6 3.4 SSE 14.2 SSE 0.0 801.0
12:45 27.2 33.3 1017.6 2.2 SSE 11.5 SSE 0.0 798.7
12:50 27.4 34.9 1017.6 3.4 ENE 8.8 S 0.0 793.0
12:55 27.5 33.8 1017.5 3.9 NNE 11.5 NNE 0.0 787.5
13:00 27.6 33.2 1017.4 0.9 NNE 6.1 N 0.0 780.4
13:05 27.7 33.6 1017.3 3.5 NNE 14.2 N 0.0 777.2
13:10 27.8 32.8 1017.3 7.1 NNE 11.5 NNE 0.0 771.5
13:15 27.9 33.5 1017.3 3.4 SSW 8.8 NNW 0.0 765.9
13:20 28.0 33.4 1017.2 0.0 NNE 0.0 NE 0.0 760.2
13:25 28.0 31.7 1017.2 0.0 NNE 0.0 E 0.0 751.7
13:30 28.1 32.1 1017.1 0.0 NNE 0.0 E 0.0 744.3
13:35 28.6 32.8 1017.1 0.2 NNW 6.1 SW 0.0 737.4
13:40 28.7 31.9 1017.1 6.6 NE 16.9 NNE 0.0 729.1
13:45 28.5 31.4 1017.0 4.4 ENE 16.9 NE 0.0 720.6
13:50 28.3 31.9 1017.0 7.1 E 16.9 ESE 0.0 714.6
13:55 28.3 32.4 1017.1 4.5 E 14.2 E 0.0 709.0
14:00 28.5 31.5 1017.0 6.5 E 14.2 NE 0.0 701.1
14:05 28.4 31.6 1017.0 6.5 ENE 11.5 E 0.0 692.4
14:10 28.7 30.4 1017.0 8.8 NE 16.9 NE 0.0 685.0
14:15 28.6 30.1 1017.0 8.0 ENE 14.2 ENE 0.0 679.1
14:20 28.6 30.3 1017.0 7.3 ENE 14.2 ENE 0.0 672.1
14:25 28.7 29.5 1017.0 6.4 NE 14.2 N 0.0 674.1
14:30 29.0 29.4 1017.0 7.2 NE 14.2 N 0.0 667.1
14:35 28.7 29.6 1017.0 4.8 ENE 11.5 ENE 0.0 658.6
14:40 29.1 29.1 1017.0 2.8 NE 11.5 ENE 0.0 652.2
14:45 28.9 30.2 1017.0 7.7 ENE 14.2 ENE 0.0 632.5
14:50 28.5 39.6 1017.0 8.7 ENE 19.6 ENE 0.0 622.5
14:55 28.3 44.1 1017.0 6.2 ENE 16.9 E 0.0 628.0
15:00 28.2 45.1 1017.0 8.5 E 19.6 E 0.0 632.4
15:05 27.7 46.9 1017.0 11.0 E 22.3 E 0.0 637.1
15:10 27.2 48.3 1017.0 12.3 ENE 25.0 NE 0.0 635.2
15:15 27.1 48.6 1017.1 11.3 E 19.6 ENE 0.0 563.7
15:20 26.5 50.5 1017.1 10.8 E 16.9 E 0.0 145.5
15:25 26.0 52.0 1017.1 7.1 E 14.2 ENE 0.0 345.6
15:30 26.3 51.0 1017.1 5.6 E 14.2 ESE 0.0 182.8
15:35 26.2 52.0 1017.1 6.3 E 14.2 E 0.0 176.8
15:40 25.9 52.7 1017.1 7.3 E 14.2 ENE 0.0 172.6
15:45 25.8 53.6 1017.1 5.1 E 14.2 E 0.0 242.4
15:50 25.8 53.8 1017.1 6.1 E 14.2 ESE 0.0 96.1
15:55 25.5 54.2 1017.0 4.5 E 11.5 ESE 0.0 78.1
16:00 25.3 54.7 1017.0 2.2 ENE 11.5 NNE 0.0 81.3
16:05 25.3 54.8 1017.1 0.0 NNE 0.0 SE 0.0 108.2
16:10 25.4 55.1 1017.1 0.0 NNE 0.0 ENE 0.0 305.1
16:15 25.9 53.8 1017.0 0.0 NNE 0.0 ENE 0.0 335.2
16:20 26.3 52.7 1017.0 0.0 NNE 0.0 ENE 0.0 131.5
16:25 26.2 53.5 1017.0 0.0 NNE 0.0 E 0.0 114.5
16:30 25.9 53.7 1017.1 3.0 E 11.5 E 0.0 104.1
16:35 25.6 54.7 1017.1 3.0 E 8.8 E 0.0 104.4
16:40 25.5 54.7 1017.1 1.3 E 6.1 E 0.0 103.3
16:45 25.4 55.3 1017.1 0.5 E 6.1 ENE 0.0 105.5
16:50 25.5 56.2 1017.1 1.8 ESE 8.8 SE 0.0 234.2
16:55 25.8 55.0 1017.1 1.2 E 8.8 E 0.0 154.6
17:00 25.6 55.9 1017.1 3.3 E 11.5 ENE 0.0 116.9
17:05 25.5 56.5 1017.1 4.5 ENE 14.2 E 0.0 85.5
17:10 25.0 57.9 1017.2 8.1 ENE 16.9 ENE 0.0 142.2
17:15 25.0 58.4 1017.2 5.9 E 11.5 ENE 0.0 163.7
17:20 25.0 58.4 1017.1 7.3 E 14.2 E 0.0 118.6
17:25 24.9 59.2 1017.2 4.0 E 11.5 ENE 0.0 71.0
17:30 24.6 60.1 1017.3 6.2 E 14.2 E 0.0 36.5
17:35 24.3 60.8 1017.3 6.2 E 14.2 ENE 0.0 31.6
17:40 24.1 61.9 1017.3 4.3 E 11.5 NE 0.0 30.2
17:45 23.9 62.8 1017.4 2.3 E 8.8 ENE 0.0 30.9
17:50 23.8 64.1 1017.4 0.7 ESE 8.8 SE 0.0 24.2
17:55 23.7 64.1 1017.5 2.7 ESE 8.8 ESE 0.0 21.6
18:00 23.5 64.8 1017.5 0.1 ESE 3.4 ESE 0.0 19.6
18:05 23.3 65.4 1017.6 0.9 E 8.8 E 0.0 18.3
18:10 23.2 66.8 1017.6 0.0 NNE 0.0 SE 0.0 16.8
18:15 23.0 67.8 1017.6 0.0 NNE 0.0 SSE 0.0 14.6
18:20 22.6 69.8 1017.7 0.0 NNE 0.0 SSW 0.0 12.2
18:25 22.4 71.1 1017.7 0.0 NNE 0.0 WSW 0.0 9.7
18:30 22.1 71.7 1017.8 0.0 NNE 0.0 SW 0.0 7.7
18:35 21.8 73.2 1017.9 0.0 NNE 0.0 SW 0.0 6.1
18:40 21.5 74.2 1018.0 0.0 NNE 0.0 SW 0.0 4.6
18:45 21.2 75.0 1018.0 0.0 NNE 0.0 SW 0.0 3.0
18:50 21.0 76.7 1018.1 0.0 NNE 0.0 SW 0.0 1.8
18:55 20.7 77.1 1018.2 0.0 NNE 0.0 SW 0.0 0.8
19:00 20.5 78.1 1018.3 0.0 NNE 0.0 SW 0.0 0.3
19:05 20.3 79.3 1018.3 0.0 NNE 0.0 SW 0.0 0.1
19:10 20.4 79.2 1018.4 0.0 NNE 0.0 SW 0.0 0.0
19:15 20.2 79.9 1018.4 0.0 NNE 0.0 SW 0.0 0.0
19:20 20.1 80.6 1018.5 0.8 SW 8.8 SW 0.0 0.0
19:25 20.3 79.8 1018.5 0.1 WSW 6.1 WSW 0.0 0.0
19:30 20.4 79.6 1018.6 0.0 NNE 0.0 S 0.0 0.0
19:35 20.2 80.5 1018.6 0.0 NNE 0.0 ESE 0.0 0.0
19:40 19.8 81.6 1018.7 0.0 NNE 0.0 WSW 0.0 0.0
19:45 19.6 82.3 1018.7 0.0 NNE 0.0 SW 0.0 0.0
19:50 19.5 82.9 1018.7 0.0 NNE 0.0 WSW 0.0 0.0
19:55 19.4 83.1 1018.8 0.0 NNE 0.0 WSW 0.0 0.0
20:00 19.3 83.8 1018.9 0.0 NNE 0.0 WSW 0.0 0.0
20:05 19.1 84.1 1018.9 0.0 NNE 0.0 SW 0.0 0.0
20:10 18.9 84.7 1019.0 0.0 NNE 0.0 SW 0.0 0.0
20:15 18.8 84.8 1019.0 0.0 NNE 0.0 SW 0.0 0.0
20:20 18.7 84.8 1019.1 0.0 NNE 0.0 WSW 0.0 0.0
20:25 18.5 85.0 1019.1 0.0 NNE 0.0 WSW 0.0 0.0
20:30 18.4 85.6 1019.2 0.0 NNE 0.0 SW 0.0 0.0
Màxima 29.2 99.5 1019.2 12.3 ENE 25.0 NE 0.1 829.0
Mínima 12.3 29.1 1016.5
Total 0.2